Auburndale, WI

11:02 AM CDT on July 25, 2014 (GMT -0500)
Marshfield Municipal (KMFI) Elev 1276 ft | 44.64 °N, 90.19 °W | Change Station

Current weather conditions updated 8 minutes ago

Overcast
Overcast
63 °F
Feels Like 63 °F
N
10
Wind Variable Wind from South

Today is forecast to be Cooler than yesterday. Thunderstorms.

Today
High -- | Low -- °F
--% Chance of Precip.
Yesterday
High -- | Low -- °F
Precip. -- in
5:38 AM 8:33 PM
Waning Crescent, 1% visible
Pressure 29.86 in
Visibility 10.0 miles
Clouds Few 4700 ft
Few 6000 ft
Overcast 11000 ft
Dew Point 59 °F
Humidity 87%
Rainfall 0.00 in
Snow Depth Not available.
UV 2 out of 12
Pollen 6.10 out of 12
Air Quality Not available.
Flu Activity Not available.
METAR KMFI 251554Z AUTO 17009KT 10SM -RA FEW047 FEW060 OVC110 17/15 A2986 RMK AO2 SLP111 P0000 T01720150

More Conditions Fewer Conditions

Pressure 29.86 in
Visibility 10.0 miles
Clouds Few 4700 ft
Few 6000 ft
Overcast 11000 ft
Dew Point 59 °F
Humidity 87%
Rainfall 0.00 in
Snow Depth Not available.
UV 2 out of 12
Pollen 6.10 out of 12
Air Quality Not available.
Flu Activity Not available.
METAR KMFI 251554Z AUTO 17009KT 10SM -RA FEW047 FEW060 OVC110 17/15 A2986 RMK AO2 SLP111 P0000 T01720150

More Conditions Fewer Conditions

10-Day Weather Forecast

Almanac

Astronomy

Jul. 25, 2014 Rise Set
Actual Time 5:38 AM CDT 8:33 PM CDT
Civil Twilight 5:04 AM CDT 9:07 PM CDT
Nautical Twilight 4:20 AM CDT 9:51 PM CDT
Astronomical Twilight 3:28 AM CDT 10:42 PM CDT
Moon 4:39 AM CDT 7:28 PM CDT
Length of Visible Light 16h 03m
Length of Day
14h 54m
Tomorrow will be 2m 7s shorter.
Waning Crescent, 1% of the Moon is Illuminated
Today
Waning Crescent
Jul 26
New
Aug 3
First Quarter
Aug 10
Full
Aug 17
Last Quarter

Today's Extremes

State Highs State Lows

Community

WunderPhotos

Upload Photos

1,737,361 photos uploaded!

Nearby

Snow Depth

Station Depth Elevation
No new snow has been reported.

Earthquake Activity

City Distance Mag. Time & Date
No recent earthquake activity has been reported nearby.
Minimum magnitude displayed is 2.5.

Coastal Water Temperatures

Place Temperature
No Stations Reporting

Nearby Weather Stations

Station Location Temp. Dew Point Humidity Wind Precip. Elev Updated Type
WIDOT Pittsville - STH 13 @ STH 80, Pittsville, WI 64 °F 60 °F 88% South  at  7 mph 0.00 in / hr 1040 ft 9:18 AM CDT MADIS
Wisconsin Rapids, WI 67.3 °F 61 °F 80% WNW  at  13.0 mph 0.00 in / hr 1029 ft 11:01 AM CDT Normal
Wisconsin Rapids/Grand Rapids Area, Wisconsin Rapids, WI 64.9 °F 59 °F 81% North  at  0.0 mph 0.00 in / hr 1037 ft 11:02 AM CDT Rapid Fire
Town of Grand Rapids, Wisconsin Rapids, WI 64.2 °F 58 °F 81% NNW  at  0.0 mph 0.00 in / hr 1033 ft 10:58 AM CDT Normal
South East Grand Rapids, WI, Wisconsin Rapids, WI 64.8 °F 60 °F 83% SW  at  0.0 mph 0.00 in / hr 1073 ft 11:02 AM CDT Rapid Fire
WIDOT Stevens Point - I-39 @ STH 66, Stevens Point, WI 67 °F 54 °F 63% NNE  at  2 mph 0.00 in / hr 1100 ft 9:16 AM CDT MADIS

Show More Stations Show Fewer Stations